sensor_id;sensor_type;location;lat;lon;timestamp;pressure;altitude;pressure_sealevel;temperature;humidity
81802;BME280;71199;52.490;5.448;2024-02-23T00:01:02;98556.97;;;3.71;100.00
81802;BME280;71199;52.490;5.448;2024-02-23T00:03:27;98572.41;;;3.70;100.00
81802;BME280;71199;52.490;5.448;2024-02-23T00:05:53;98567.28;;;3.75;100.00
81802;BME280;71199;52.490;5.448;2024-02-23T00:08:18;98560.28;;;3.81;100.00
81802;BME280;71199;52.490;5.448;2024-02-23T00:10:44;98560.06;;;3.97;100.00
81802;BME280;71199;52.490;5.448;2024-02-23T00:13:09;98574.78;;;4.18;100.00
81802;BME280;71199;52.490;5.448;2024-02-23T00:15:35;98566.44;;;4.34;100.00
81802;BME280;71199;52.490;5.448;2024-02-23T00:18:00;98573.81;;;4.40;100.00
81802;BME280;71199;52.490;5.448;2024-02-23T00:20:28;98592.97;;;4.47;100.00
81802;BME280;71199;52.490;5.448;2024-02-23T00:22:54;98596.78;;;4.68;100.00
81802;BME280;71199;52.490;5.448;2024-02-23T00:25:19;98613.94;;;4.68;100.00
81802;BME280;71199;52.490;5.448;2024-02-23T00:27:44;98612.91;;;4.69;100.00
81802;BME280;71199;52.490;5.448;2024-02-23T00:30:12;98593.09;;;4.75;100.00
81802;BME280;71199;52.490;5.448;2024-02-23T00:32:37;98605.28;;;4.79;100.00
81802;BME280;71199;52.490;5.448;2024-02-23T00:35:03;98602.38;;;4.81;100.00
81802;BME280;71199;52.490;5.448;2024-02-23T00:37:28;98612.59;;;4.79;100.00
81802;BME280;71199;52.490;5.448;2024-02-23T00:39:53;98625.25;;;4.87;100.00
81802;BME280;71199;52.490;5.448;2024-02-23T00:42:19;98637.75;;;4.81;100.00
81802;BME280;71199;52.490;5.448;2024-02-23T00:44:46;98623.97;;;4.82;100.00
81802;BME280;71199;52.490;5.448;2024-02-23T00:47:11;98633.03;;;4.90;100.00
81802;BME280;71199;52.490;5.448;2024-02-23T00:49:37;98636.41;;;4.92;100.00
81802;BME280;71199;52.490;5.448;2024-02-23T00:52:02;98638.75;;;4.95;100.00
81802;BME280;71199;52.490;5.448;2024-02-23T00:54:27;98644.19;;;4.95;100.00
81802;BME280;71199;52.490;5.448;2024-02-23T00:56:53;98653.50;;;5.00;100.00
81802;BME280;71199;52.490;5.448;2024-02-23T00:59:18;98643.78;;;5.13;100.00
81802;BME280;71199;52.490;5.448;2024-02-23T01:01:44;98645.00;;;5.10;100.00
81802;BME280;71199;52.490;5.448;2024-02-23T01:04:09;98659.84;;;5.08;100.00
81802;BME280;71199;52.490;5.448;2024-02-23T01:06:34;98658.59;;;5.10;100.00
81802;BME280;71199;52.490;5.448;2024-02-23T01:08:59;98666.53;;;5.05;100.00
81802;BME280;71199;52.490;5.448;2024-02-23T01:11:25;98672.97;;;5.04;100.00
81802;BME280;71199;52.490;5.448;2024-02-23T01:13:50;98671.13;;;4.90;100.00
81802;BME280;71199;52.490;5.448;2024-02-23T01:16:16;98682.50;;;4.78;100.00
81802;BME280;71199;52.490;5.448;2024-02-23T01:18:41;98685.81;;;4.74;100.00
81802;BME280;71199;52.490;5.448;2024-02-23T01:21:07;98695.94;;;4.80;100.00
81802;BME280;71199;52.490;5.448;2024-02-23T01:23:33;98699.50;;;4.80;100.00
81802;BME280;71199;52.490;5.448;2024-02-23T01:25:58;98695.06;;;4.79;100.00
81802;BME280;71199;52.490;5.448;2024-02-23T01:28:25;98695.47;;;4.76;100.00
81802;BME280;71199;52.490;5.448;2024-02-23T01:30:50;98693.41;;;4.78;100.00
81802;BME280;71199;52.490;5.448;2024-02-23T01:33:16;98695.38;;;4.84;100.00
81802;BME280;71199;52.490;5.448;2024-02-23T01:35:41;98702.47;;;4.85;100.00
81802;BME280;71199;52.490;5.448;2024-02-23T01:38:06;98705.41;;;4.84;100.00
81802;BME280;71199;52.490;5.448;2024-02-23T01:40:32;98708.22;;;4.91;100.00
81802;BME280;71199;52.490;5.448;2024-02-23T01:43:04;98713.91;;;4.96;100.00
81802;BME280;71199;52.490;5.448;2024-02-23T01:45:30;98708.41;;;4.89;100.00
81802;BME280;71199;52.490;5.448;2024-02-23T01:47:56;98716.75;;;4.88;100.00
81802;BME280;71199;52.490;5.448;2024-02-23T01:50:22;98721.91;;;4.82;100.00
81802;BME280;71199;52.490;5.448;2024-02-23T01:52:49;98726.16;;;4.70;100.00
81802;BME280;71199;52.490;5.448;2024-02-23T01:55:20;98735.06;;;4.64;100.00
81802;BME280;71199;52.490;5.448;2024-02-23T01:57:46;98730.38;;;4.58;100.00
81802;BME280;71199;52.490;5.448;2024-02-23T02:00:16;98739.19;;;4.60;100.00
81802;BME280;71199;52.490;5.448;2024-02-23T02:02:43;98748.75;;;4.56;100.00
81802;BME280;71199;52.490;5.448;2024-02-23T02:05:09;98743.31;;;4.56;100.00
81802;BME280;71199;52.490;5.448;2024-02-23T02:07:34;98756.41;;;4.37;100.00
81802;BME280;71199;52.490;5.448;2024-02-23T02:09:59;98756.34;;;4.46;100.00
81802;BME280;71199;52.490;5.448;2024-02-23T02:12:28;98761.50;;;4.55;100.00
81802;BME280;71199;52.490;5.448;2024-02-23T02:14:54;98766.47;;;4.52;100.00
81802;BME280;71199;52.490;5.448;2024-02-23T02:17:21;98768.53;;;4.50;100.00
81802;BME280;71199;52.490;5.448;2024-02-23T02:19:48;98768.81;;;4.55;100.00
81802;BME280;71199;52.490;5.448;2024-02-23T02:22:13;98767.59;;;4.57;100.00
81802;BME280;71199;52.490;5.448;2024-02-23T02:24:38;98767.41;;;4.59;100.00
81802;BME280;71199;52.490;5.448;2024-02-23T02:27:06;98762.03;;;4.51;100.00
81802;BME280;71199;52.490;5.448;2024-02-23T02:29:32;98774.63;;;4.52;100.00
81802;BME280;71199;52.490;5.448;2024-02-23T02:31:57;98757.34;;;4.44;100.00
81802;BME280;71199;52.490;5.448;2024-02-23T02:34:22;98762.44;;;4.48;100.00
81802;BME280;71199;52.490;5.448;2024-02-23T02:36:48;98779.84;;;4.38;100.00
81802;BME280;71199;52.490;5.448;2024-02-23T02:39:14;98782.31;;;4.48;100.00
81802;BME280;71199;52.490;5.448;2024-02-23T02:41:39;98776.97;;;4.55;100.00
81802;BME280;71199;52.490;5.448;2024-02-23T02:44:05;98789.44;;;4.49;100.00
81802;BME280;71199;52.490;5.448;2024-02-23T02:46:30;98780.31;;;4.42;100.00
81802;BME280;71199;52.490;5.448;2024-02-23T02:48:55;98786.97;;;4.39;100.00
81802;BME280;71199;52.490;5.448;2024-02-23T02:51:21;98786.00;;;4.32;100.00
81802;BME280;71199;52.490;5.448;2024-02-23T02:53:46;98791.00;;;4.29;100.00
81802;BME280;71199;52.490;5.448;2024-02-23T02:56:12;98799.88;;;4.22;100.00
81802;BME280;71199;52.490;5.448;2024-02-23T02:58:37;98796.50;;;4.20;100.00
81802;BME280;71199;52.490;5.448;2024-02-23T03:01:02;98792.19;;;4.26;100.00
81802;BME280;71199;52.490;5.448;2024-02-23T03:03:28;98796.69;;;4.19;100.00
81802;BME280;71199;52.490;5.448;2024-02-23T03:05:54;98799.22;;;4.20;100.00
81802;BME280;71199;52.490;5.448;2024-02-23T03:08:19;98804.44;;;4.22;100.00
81802;BME280;71199;52.490;5.448;2024-02-23T03:10:44;98804.66;;;4.20;100.00
81802;BME280;71199;52.490;5.448;2024-02-23T03:13:10;98810.31;;;4.34;100.00
81802;BME280;71199;52.490;5.448;2024-02-23T03:15:35;98823.00;;;4.41;100.00
81802;BME280;71199;52.490;5.448;2024-02-23T03:18:00;98813.03;;;4.34;100.00
81802;BME280;71199;52.490;5.448;2024-02-23T03:20:27;98824.47;;;4.29;100.00
81802;BME280;71199;52.490;5.448;2024-02-23T03:22:52;98828.00;;;4.30;100.00
81802;BME280;71199;52.490;5.448;2024-02-23T03:25:18;98819.25;;;4.19;100.00
81802;BME280;71199;52.490;5.448;2024-02-23T03:27:43;98817.16;;;4.07;100.00
81802;BME280;71199;52.490;5.448;2024-02-23T03:30:09;98820.84;;;3.91;100.00
81802;BME280;71199;52.490;5.448;2024-02-23T03:32:35;98823.75;;;3.89;100.00
81802;BME280;71199;52.490;5.448;2024-02-23T03:35:05;98824.28;;;3.84;100.00
81802;BME280;71199;52.490;5.448;2024-02-23T03:37:31;98815.94;;;3.86;100.00
81802;BME280;71199;52.490;5.448;2024-02-23T03:39:56;98833.81;;;3.80;100.00
81802;BME280;71199;52.490;5.448;2024-02-23T03:42:22;98825.84;;;3.79;100.00
81802;BME280;71199;52.490;5.448;2024-02-23T03:44:47;98829.41;;;3.79;100.00
81802;BME280;71199;52.490;5.448;2024-02-23T03:47:13;98825.31;;;3.83;100.00
81802;BME280;71199;52.490;5.448;2024-02-23T03:49:38;98838.53;;;3.87;100.00
81802;BME280;71199;52.490;5.448;2024-02-23T03:52:04;98842.41;;;3.92;100.00
81802;BME280;71199;52.490;5.448;2024-02-23T03:54:30;98852.97;;;3.87;100.00
81802;BME280;71199;52.490;5.448;2024-02-23T03:56:56;98856.56;;;3.79;100.00
81802;BME280;71199;52.490;5.448;2024-02-23T03:59:22;98857.78;;;3.77;100.00
81802;BME280;71199;52.490;5.448;2024-02-23T04:01:47;98847.72;;;3.86;100.00
81802;BME280;71199;52.490;5.448;2024-02-23T04:04:13;98856.66;;;3.94;100.00
81802;BME280;71199;52.490;5.448;2024-02-23T04:06:38;98855.38;;;3.82;100.00
81802;BME280;71199;52.490;5.448;2024-02-23T04:09:04;98856.03;;;3.84;100.00
81802;BME280;71199;52.490;5.448;2024-02-23T04:11:30;98870.47;;;3.84;100.00
81802;BME280;71199;52.490;5.448;2024-02-23T04:13:56;98860.63;;;3.83;100.00
81802;BME280;71199;52.490;5.448;2024-02-23T04:16:25;98863.97;;;3.94;100.00
81802;BME280;71199;52.490;5.448;2024-02-23T04:18:50;98878.50;;;4.01;100.00
81802;BME280;71199;52.490;5.448;2024-02-23T04:21:16;98866.81;;;4.00;100.00
81802;BME280;71199;52.490;5.448;2024-02-23T04:23:43;98870.47;;;4.08;100.00
81802;BME280;71199;52.490;5.448;2024-02-23T04:26:08;98859.16;;;4.04;100.00
81802;BME280;71199;52.490;5.448;2024-02-23T04:28:34;98880.88;;;4.04;100.00
81802;BME280;71199;52.490;5.448;2024-02-23T04:31:02;98878.34;;;4.02;100.00
81802;BME280;71199;52.490;5.448;2024-02-23T04:33:28;98878.00;;;3.97;100.00
81802;BME280;71199;52.490;5.448;2024-02-23T04:35:53;98883.22;;;3.84;100.00
81802;BME280;71199;52.490;5.448;2024-02-23T04:38:18;98884.41;;;3.81;100.00
81802;BME280;71199;52.490;5.448;2024-02-23T04:40:44;98890.91;;;3.72;100.00
81802;BME280;71199;52.490;5.448;2024-02-23T04:43:09;98890.09;;;3.63;100.00
81802;BME280;71199;52.490;5.448;2024-02-23T04:45:34;98891.97;;;3.63;100.00
81802;BME280;71199;52.490;5.448;2024-02-23T04:48:00;98891.84;;;3.56;100.00
81802;BME280;71199;52.490;5.448;2024-02-23T04:50:26;98894.41;;;3.41;100.00
81802;BME280;71199;52.490;5.448;2024-02-23T04:52:52;98891.03;;;3.39;100.00
81802;BME280;71199;52.490;5.448;2024-02-23T04:55:17;98890.91;;;3.33;100.00
81802;BME280;71199;52.490;5.448;2024-02-23T04:57:42;98889.69;;;3.35;100.00
81802;BME280;71199;52.490;5.448;2024-02-23T05:00:08;98903.25;;;3.35;100.00
81802;BME280;71199;52.490;5.448;2024-02-23T05:02:33;98909.75;;;3.26;100.00
81802;BME280;71199;52.490;5.448;2024-02-23T05:05:03;98915.19;;;3.26;100.00
81802;BME280;71199;52.490;5.448;2024-02-23T05:07:30;98907.22;;;3.25;100.00
81802;BME280;71199;52.490;5.448;2024-02-23T05:09:57;98907.38;;;3.23;100.00
81802;BME280;71199;52.490;5.448;2024-02-23T05:12:22;98911.78;;;3.24;100.00
81802;BME280;71199;52.490;5.448;2024-02-23T05:14:47;98911.66;;;3.17;100.00
81802;BME280;71199;52.490;5.448;2024-02-23T05:17:13;98912.31;;;3.19;100.00
81802;BME280;71199;52.490;5.448;2024-02-23T05:19:38;98913.16;;;3.20;100.00
81802;BME280;71199;52.490;5.448;2024-02-23T05:22:04;98910.59;;;3.27;100.00
81802;BME280;71199;52.490;5.448;2024-02-23T05:24:29;98902.16;;;3.21;100.00
81802;BME280;71199;52.490;5.448;2024-02-23T05:26:54;98910.59;;;3.27;100.00
81802;BME280;71199;52.490;5.448;2024-02-23T05:29:20;98899.03;;;3.33;100.00
81802;BME280;71199;52.490;5.448;2024-02-23T05:31:51;98902.25;;;3.36;100.00
81802;BME280;71199;52.490;5.448;2024-02-23T05:34:17;98910.53;;;3.43;100.00
81802;BME280;71199;52.490;5.448;2024-02-23T05:36:44;98909.00;;;3.49;100.00
81802;BME280;71199;52.490;5.448;2024-02-23T05:39:11;98911.03;;;3.55;100.00
81802;BME280;71199;52.490;5.448;2024-02-23T05:41:37;98911.00;;;3.63;100.00
81802;BME280;71199;52.490;5.448;2024-02-23T05:44:03;98917.75;;;3.67;100.00
81802;BME280;71199;52.490;5.448;2024-02-23T05:46:31;98916.34;;;3.79;100.00
81802;BME280;71199;52.490;5.448;2024-02-23T05:48:57;98918.19;;;3.87;100.00
81802;BME280;71199;52.490;5.448;2024-02-23T05:51:22;98909.38;;;3.85;100.00
81802;BME280;71199;52.490;5.448;2024-02-23T05:53:47;98916.94;;;3.98;100.00
81802;BME280;71199;52.490;5.448;2024-02-23T05:56:13;98918.78;;;3.97;100.00
81802;BME280;71199;52.490;5.448;2024-02-23T05:58:38;98926.06;;;4.05;100.00
81802;BME280;71199;52.490;5.448;2024-02-23T06:01:05;98916.03;;;4.06;100.00
81802;BME280;71199;52.490;5.448;2024-02-23T06:03:30;98921.44;;;4.06;100.00
81802;BME280;71199;52.490;5.448;2024-02-23T06:05:55;98918.06;;;4.03;100.00
81802;BME280;71199;52.490;5.448;2024-02-23T06:08:21;98915.78;;;3.92;100.00
81802;BME280;71199;52.490;5.448;2024-02-23T06:10:46;98908.94;;;3.96;100.00
81802;BME280;71199;52.490;5.448;2024-02-23T06:13:11;98916.38;;;4.02;100.00
81802;BME280;71199;52.490;5.448;2024-02-23T06:15:37;98912.56;;;3.89;100.00
81802;BME280;71199;52.490;5.448;2024-02-23T06:18:04;98912.59;;;3.80;100.00
81802;BME280;71199;52.490;5.448;2024-02-23T06:20:29;98914.34;;;3.73;100.00
81802;BME280;71199;52.490;5.448;2024-02-23T06:22:55;98920.56;;;3.82;100.00
81802;BME280;71199;52.490;5.448;2024-02-23T06:25:20;98919.66;;;3.98;100.00
81802;BME280;71199;52.490;5.448;2024-02-23T06:27:46;98919.28;;;4.01;100.00
81802;BME280;71199;52.490;5.448;2024-02-23T06:30:11;98918.94;;;4.04;100.00
81802;BME280;71199;52.490;5.448;2024-02-23T06:32:37;98914.84;;;4.08;100.00
81802;BME280;71199;52.490;5.448;2024-02-23T06:35:02;98917.72;;;4.07;100.00
81802;BME280;71199;52.490;5.448;2024-02-23T06:37:28;98913.91;;;4.16;100.00
81802;BME280;71199;52.490;5.448;2024-02-23T06:39:53;98935.78;;;4.31;100.00
81802;BME280;71199;52.490;5.448;2024-02-23T06:42:22;98932.66;;;4.34;100.00
81802;BME280;71199;52.490;5.448;2024-02-23T06:44:48;98938.50;;;4.31;100.00
81802;BME280;71199;52.490;5.448;2024-02-23T06:47:14;98948.09;;;4.41;100.00
81802;BME280;71199;52.490;5.448;2024-02-23T06:49:42;98947.09;;;4.34;100.00
81802;BME280;71199;52.490;5.448;2024-02-23T06:52:08;98950.03;;;4.33;100.00
81802;BME280;71199;52.490;5.448;2024-02-23T06:54:34;98960.25;;;4.31;100.00
81802;BME280;71199;52.490;5.448;2024-02-23T06:56:59;98956.19;;;4.27;100.00
81802;BME280;71199;52.490;5.448;2024-02-23T06:59:25;98942.75;;;4.25;100.00
81802;BME280;71199;52.490;5.448;2024-02-23T07:01:51;98954.13;;;4.29;100.00
81802;BME280;71199;52.490;5.448;2024-02-23T07:04:17;98951.47;;;4.20;100.00
81802;BME280;71199;52.490;5.448;2024-02-23T07:06:42;98950.31;;;4.15;100.00
81802;BME280;71199;52.490;5.448;2024-02-23T07:09:08;98947.91;;;4.12;100.00
81802;BME280;71199;52.490;5.448;2024-02-23T07:11:34;98949.97;;;4.10;100.00
81802;BME280;71199;52.490;5.448;2024-02-23T07:13:59;98946.91;;;4.13;100.00
81802;BME280;71199;52.490;5.448;2024-02-23T07:16:25;98944.53;;;4.10;100.00
81802;BME280;71199;52.490;5.448;2024-02-23T07:18:50;98950.47;;;4.13;100.00
81802;BME280;71199;52.490;5.448;2024-02-23T07:21:19;98941.94;;;4.24;100.00
81802;BME280;71199;52.490;5.448;2024-02-23T07:23:44;98957.03;;;4.27;100.00
81802;BME280;71199;52.490;5.448;2024-02-23T07:26:09;98943.72;;;4.32;100.00
81802;BME280;71199;52.490;5.448;2024-02-23T07:28:35;98945.94;;;4.37;100.00
81802;BME280;71199;52.490;5.448;2024-02-23T07:31:00;98950.81;;;4.41;100.00
81802;BME280;71199;52.490;5.448;2024-02-23T07:33:26;98935.44;;;4.49;100.00
81802;BME280;71199;52.490;5.448;2024-02-23T07:35:51;98941.56;;;4.51;100.00
81802;BME280;71199;52.490;5.448;2024-02-23T07:38:16;98945.69;;;4.70;100.00
81802;BME280;71199;52.490;5.448;2024-02-23T07:40:44;98934.91;;;4.76;100.00
81802;BME280;71199;52.490;5.448;2024-02-23T07:43:09;98926.44;;;4.94;100.00
81802;BME280;71199;52.490;5.448;2024-02-23T07:45:36;98933.56;;;4.95;100.00
81802;BME280;71199;52.490;5.448;2024-02-23T07:48:02;98938.75;;;5.05;100.00
81802;BME280;71199;52.490;5.448;2024-02-23T07:50:28;98926.16;;;5.04;100.00
81802;BME280;71199;52.490;5.448;2024-02-23T07:52:53;98903.63;;;5.10;100.00
81802;BME280;71199;52.490;5.448;2024-02-23T07:55:18;98896.69;;;5.08;100.00
81802;BME280;71199;52.490;5.448;2024-02-23T07:57:44;98909.16;;;5.02;100.00
81802;BME280;71199;52.490;5.448;2024-02-23T08:00:10;98893.03;;;5.00;100.00
81802;BME280;71199;52.490;5.448;2024-02-23T08:02:36;98900.16;;;5.01;100.00
81802;BME280;71199;52.490;5.448;2024-02-23T08:05:01;98897.25;;;5.03;100.00
81802;BME280;71199;52.490;5.448;2024-02-23T08:07:27;98894.44;;;5.11;100.00
81802;BME280;71199;52.490;5.448;2024-02-23T08:09:53;98894.34;;;5.19;100.00
81802;BME280;71199;52.490;5.448;2024-02-23T08:12:19;98886.94;;;5.28;100.00
81802;BME280;71199;52.490;5.448;2024-02-23T08:14:44;98890.78;;;5.34;100.00
81802;BME280;71199;52.490;5.448;2024-02-23T08:17:11;98883.47;;;5.34;100.00
81802;BME280;71199;52.490;5.448;2024-02-23T08:19:37;98894.06;;;5.29;100.00
81802;BME280;71199;52.490;5.448;2024-02-23T08:22:02;98893.53;;;5.34;100.00
81802;BME280;71199;52.490;5.448;2024-02-23T08:24:28;98884.78;;;5.23;100.00
81802;BME280;71199;52.490;5.448;2024-02-23T08:26:53;98885.88;;;5.29;100.00
81802;BME280;71199;52.490;5.448;2024-02-23T08:29:19;98894.34;;;5.34;100.00
81802;BME280;71199;52.490;5.448;2024-02-23T08:31:44;98885.25;;;5.42;100.00
81802;BME280;71199;52.490;5.448;2024-02-23T08:34:10;98889.00;;;5.41;100.00
81802;BME280;71199;52.490;5.448;2024-02-23T08:36:35;98878.66;;;5.51;100.00
81802;BME280;71199;52.490;5.448;2024-02-23T08:39:01;98890.28;;;5.60;100.00
81802;BME280;71199;52.490;5.448;2024-02-23T08:41:28;98887.03;;;5.64;100.00
81802;BME280;71199;52.490;5.448;2024-02-23T08:43:53;98880.03;;;5.92;100.00
81802;BME280;71199;52.490;5.448;2024-02-23T08:46:20;98881.91;;;5.91;100.00
81802;BME280;71199;52.490;5.448;2024-02-23T08:48:47;98875.16;;;5.87;100.00
81802;BME280;71199;52.490;5.448;2024-02-23T08:51:12;98889.44;;;5.74;100.00
81802;BME280;71199;52.490;5.448;2024-02-23T08:53:38;98895.97;;;5.58;100.00
81802;BME280;71199;52.490;5.448;2024-02-23T08:56:04;98879.44;;;5.30;100.00
81802;BME280;71199;52.490;5.448;2024-02-23T08:58:29;98898.84;;;5.27;100.00
81802;BME280;71199;52.490;5.448;2024-02-23T09:00:55;98889.66;;;4.98;100.00
81802;BME280;71199;52.490;5.448;2024-02-23T09:03:20;98894.03;;;4.99;100.00
81802;BME280;71199;52.490;5.448;2024-02-23T09:05:46;98888.03;;;5.04;100.00
81802;BME280;71199;52.490;5.448;2024-02-23T09:08:13;98889.75;;;5.05;100.00
81802;BME280;71199;52.490;5.448;2024-02-23T09:10:39;98889.25;;;5.01;100.00
81802;BME280;71199;52.490;5.448;2024-02-23T09:13:04;98887.47;;;4.94;100.00
81802;BME280;71199;52.490;5.448;2024-02-23T09:15:31;98898.66;;;4.99;100.00
81802;BME280;71199;52.490;5.448;2024-02-23T09:17:56;98891.25;;;5.08;100.00
81802;BME280;71199;52.490;5.448;2024-02-23T09:20:22;98897.09;;;5.19;100.00
81802;BME280;71199;52.490;5.448;2024-02-23T09:22:47;98886.94;;;5.28;100.00
81802;BME280;71199;52.490;5.448;2024-02-23T09:25:13;98890.22;;;5.23;100.00
81802;BME280;71199;52.490;5.448;2024-02-23T09:27:38;98899.97;;;5.33;100.00
81802;BME280;71199;52.490;5.448;2024-02-23T09:30:10;98893.53;;;5.34;100.00
81802;BME280;71199;52.490;5.448;2024-02-23T09:32:36;98897.75;;;5.36;100.00
81802;BME280;71199;52.490;5.448;2024-02-23T09:35:01;98904.31;;;5.42;100.00
81802;BME280;71199;52.490;5.448;2024-02-23T09:37:28;98897.47;;;5.46;100.00
81802;BME280;71199;52.490;5.448;2024-02-23T09:39:53;98902.44;;;5.42;100.00
81802;BME280;71199;52.490;5.448;2024-02-23T09:42:21;98893.88;;;5.45;100.00
81802;BME280;71199;52.490;5.448;2024-02-23T09:44:53;98905.63;;;5.46;100.00
81802;BME280;71199;52.490;5.448;2024-02-23T09:47:23;98902.34;;;5.36;100.00
81802;BME280;71199;52.490;5.448;2024-02-23T09:49:49;98911.94;;;5.32;100.00
81802;BME280;71199;52.490;5.448;2024-02-23T09:52:18;98912.59;;;5.19;100.00
81802;BME280;71199;52.490;5.448;2024-02-23T09:54:44;98920.28;;;5.15;100.00
81802;BME280;71199;52.490;5.448;2024-02-23T09:57:10;98907.75;;;5.06;100.00
81802;BME280;71199;52.490;5.448;2024-02-23T09:59:35;98911.59;;;4.97;100.00
81802;BME280;71199;52.490;5.448;2024-02-23T10:02:02;98915.00;;;5.14;100.00
81802;BME280;71199;52.490;5.448;2024-02-23T10:04:32;98907.50;;;5.45;100.00
81802;BME280;71199;52.490;5.448;2024-02-23T10:06:57;98908.16;;;5.62;100.00
81802;BME280;71199;52.490;5.448;2024-02-23T10:09:23;98905.91;;;5.81;100.00
81802;BME280;71199;52.490;5.448;2024-02-23T10:11:54;98900.91;;;5.99;100.00
81802;BME280;71199;52.490;5.448;2024-02-23T10:14:20;98894.16;;;5.95;100.00
81802;BME280;71199;52.490;5.448;2024-02-23T10:16:46;98900.69;;;6.01;100.00
81802;BME280;71199;52.490;5.448;2024-02-23T10:19:11;98911.34;;;5.81;100.00
81802;BME280;71199;52.490;5.448;2024-02-23T10:21:37;98921.97;;;5.76;100.00
81802;BME280;71199;52.490;5.448;2024-02-23T10:24:02;98909.38;;;5.75;100.00
81802;BME280;71199;52.490;5.448;2024-02-23T10:26:28;98903.06;;;5.89;100.00
81802;BME280;71199;52.490;5.448;2024-02-23T10:28:53;98913.88;;;5.97;100.00
81802;BME280;71199;52.490;5.448;2024-02-23T10:31:19;98921.09;;;6.05;100.00
81802;BME280;71199;52.490;5.448;2024-02-23T10:33:44;98930.22;;;6.12;100.00
81802;BME280;71199;52.490;5.448;2024-02-23T10:36:11;98922.22;;;6.11;100.00
81802;BME280;71199;52.490;5.448;2024-02-23T10:38:40;98924.81;;;6.19;100.00
81802;BME280;71199;52.490;5.448;2024-02-23T10:41:08;98927.84;;;6.24;100.00
81802;BME280;71199;52.490;5.448;2024-02-23T10:43:44;98919.97;;;6.14;100.00
81802;BME280;71199;52.490;5.448;2024-02-23T10:46:12;98936.28;;;6.29;100.00
81802;BME280;71199;52.490;5.448;2024-02-23T10:48:44;98944.28;;;6.31;100.00
81802;BME280;71199;52.490;5.448;2024-02-23T10:51:14;98953.94;;;6.33;100.00
81802;BME280;71199;52.490;5.448;2024-02-23T10:53:40;98950.31;;;6.26;100.00
81802;BME280;71199;52.490;5.448;2024-02-23T10:56:06;98951.72;;;6.22;100.00
81802;BME280;71199;52.490;5.448;2024-02-23T10:58:32;98945.94;;;6.32;100.00
81802;BME280;71199;52.490;5.448;2024-02-23T11:01:00;98952.63;;;6.29;100.00
81802;BME280;71199;52.490;5.448;2024-02-23T11:03:35;98965.50;;;6.35;100.00
81802;BME280;71199;52.490;5.448;2024-02-23T11:06:01;98957.88;;;6.45;100.00
81802;BME280;71199;52.490;5.448;2024-02-23T11:08:29;98958.78;;;6.53;100.00
81802;BME280;71199;52.490;5.448;2024-02-23T11:10:55;98966.06;;;6.67;100.00
81802;BME280;71199;52.490;5.448;2024-02-23T11:13:30;98972.56;;;6.66;100.00
81802;BME280;71199;52.490;5.448;2024-02-23T11:16:05;98962.19;;;6.55;100.00
81802;BME280;71199;52.490;5.448;2024-02-23T11:18:31;98971.56;;;6.52;100.00
81802;BME280;71199;52.490;5.448;2024-02-23T11:21:01;98971.38;;;6.32;100.00
81802;BME280;71199;52.490;5.448;2024-02-23T11:23:38;98978.78;;;6.38;100.00
81802;BME280;71199;52.490;5.448;2024-02-23T11:26:05;98980.22;;;6.34;100.00
81802;BME280;71199;52.490;5.448;2024-02-23T11:28:50;98975.00;;;6.39;100.00
81802;BME280;71199;52.490;5.448;2024-02-23T11:31:22;98956.72;;;6.55;100.00
81802;BME280;71199;52.490;5.448;2024-02-23T11:33:55;98980.03;;;6.57;100.00
81802;BME280;71199;52.490;5.448;2024-02-23T11:36:34;98971.06;;;6.63;100.00
81802;BME280;71199;52.490;5.448;2024-02-23T11:39:01;98977.50;;;6.77;100.00
81802;BME280;71199;52.490;5.448;2024-02-23T11:41:27;98969.78;;;6.81;100.00
81802;BME280;71199;52.490;5.448;2024-02-23T11:43:54;98983.47;;;6.88;100.00
81802;BME280;71199;52.490;5.448;2024-02-23T11:46:23;98983.47;;;6.88;100.00
81802;BME280;71199;52.490;5.448;2024-02-23T11:48:49;98986.44;;;6.86;100.00
81802;BME280;71199;52.490;5.448;2024-02-23T11:51:21;98986.78;;;6.83;100.00
81802;BME280;71199;52.490;5.448;2024-02-23T11:53:48;98990.00;;;6.86;100.00
81802;BME280;71199;52.490;5.448;2024-02-23T11:56:13;98980.88;;;7.01;100.00
81802;BME280;71199;52.490;5.448;2024-02-23T11:58:42;98984.50;;;7.08;100.00
81802;BME280;71199;52.490;5.448;2024-02-23T12:01:07;98978.84;;;7.10;100.00
81802;BME280;71199;52.490;5.448;2024-02-23T12:03:33;98983.72;;;7.14;100.00
81802;BME280;71199;52.490;5.448;2024-02-23T12:06:02;98986.72;;;6.98;100.00
81802;BME280;71199;52.490;5.448;2024-02-23T12:08:30;98995.19;;;7.03;100.00
81802;BME280;71199;52.490;5.448;2024-02-23T12:10:57;98999.47;;;7.12;100.00
81802;BME280;71199;52.490;5.448;2024-02-23T12:13:26;99000.44;;;7.26;100.00
81802;BME280;71199;52.490;5.448;2024-02-23T12:15:52;98996.59;;;7.20;100.00
81802;BME280;71199;52.490;5.448;2024-02-23T12:18:21;99010.16;;;7.07;100.00
81802;BME280;71199;52.490;5.448;2024-02-23T12:20:49;98978.13;;;7.22;100.00
81802;BME280;71199;52.490;5.448;2024-02-23T12:23:14;99004.91;;;7.12;100.00
81802;BME280;71199;52.490;5.448;2024-02-23T12:25:40;99003.22;;;7.33;100.00
81802;BME280;71199;52.490;5.448;2024-02-23T12:28:06;99001.13;;;7.35;100.00
81802;BME280;71199;52.490;5.448;2024-02-23T12:30:31;98992.91;;;7.56;100.00
81802;BME280;71199;52.490;5.448;2024-02-23T12:33:07;98998.69;;;7.46;100.00
81802;BME280;71199;52.490;5.448;2024-02-23T12:35:34;99006.66;;;7.41;100.00
81802;BME280;71199;52.490;5.448;2024-02-23T12:38:00;98991.78;;;7.51;100.00
81802;BME280;71199;52.490;5.448;2024-02-23T12:40:26;99005.19;;;7.74;100.00
81802;BME280;71199;52.490;5.448;2024-02-23T12:42:51;98991.84;;;7.92;100.00
81802;BME280;71199;52.490;5.448;2024-02-23T12:45:17;99017.84;;;7.75;100.00
81802;BME280;71199;52.490;5.448;2024-02-23T12:47:42;99019.59;;;7.82;100.00
81802;BME280;71199;52.490;5.448;2024-02-23T12:50:07;99029.31;;;7.63;100.00
81802;BME280;71199;52.490;5.448;2024-02-23T12:52:34;99027.88;;;7.67;100.00
81802;BME280;71199;52.490;5.448;2024-02-23T12:54:59;99034.63;;;7.72;100.00